Time,TemperatureF,DewpointF,PressureIn,WindDirection,WindDirectionDegrees,WindSpeedMPH,WindSpeedGustMPH,Humidity,HourlyPrecipIn,Conditions,Clouds,dailyrainin,SoftwareType,DateUTC
2013-06-23 00:00:00,84.7,69.3,29.86,SW,217,3.0,18.0,60,0.00,,,0.00,VWS V15.00,2013-06-23 05:00:00,
2013-06-23 00:02:00,82.5,70.0,29.88,South,191,0.0,6.0,66,0.00,,,0.00,VWS V13.01,2013-06-23 05:02:00,
2013-06-23 00:07:00,82.3,70.3,29.88,South,191,0.0,9.0,67,0.00,,,0.00,VWS V13.01,2013-06-23 05:07:00,
2013-06-23 00:10:00,84.2,69.3,29.86,SSW,211,7.0,14.0,61,0.00,,,0.00,VWS V15.00,2013-06-23 05:10:00,
2013-06-23 00:12:00,82.1,70.1,29.88,South,179,0.0,0.0,67,0.00,,,0.00,VWS V13.01,2013-06-23 05:12:00,
2013-06-23 00:17:00,82.0,70.4,29.87,SSE,165,0.0,7.0,68,0.00,,,0.00,VWS V13.01,2013-06-23 05:17:00,
2013-06-23 00:20:00,83.8,69.9,29.86,South,179,0.0,16.0,63,0.00,,,0.00,VWS V15.00,2013-06-23 05:20:00,
2013-06-23 00:22:00,81.8,70.2,29.87,SSE,164,8.0,9.0,68,0.00,,,0.00,VWS V13.01,2013-06-23 05:22:00,
2013-06-23 00:27:00,81.6,70.0,29.87,SSW,195,9.0,11.0,68,0.00,,,0.00,VWS V13.01,2013-06-23 05:27:00,
2013-06-23 00:30:00,83.6,70.1,29.87,SSE,155,6.0,19.0,64,0.00,,,0.00,VWS V15.00,2013-06-23 05:30:00,
2013-06-23 00:32:00,81.5,69.9,29.88,SSW,198,0.0,7.0,68,0.00,,,0.00,VWS V13.01,2013-06-23 05:32:00,
2013-06-23 00:37:00,81.3,70.2,29.88,South,173,0.0,16.0,69,0.00,,,0.00,VWS V13.01,2013-06-23 05:37:00,
2013-06-23 00:40:00,83.3,70.3,29.87,South,180,0.0,14.0,65,0.00,,,0.00,VWS V15.00,2013-06-23 05:40:00,
2013-06-23 00:42:00,81.1,70.0,29.88,SSW,202,0.0,6.0,69,0.00,,,0.00,VWS V13.01,2013-06-23 05:42:00,
2013-06-23 00:47:00,81.0,70.3,29.87,South,173,0.0,14.0,70,0.00,,,0.00,VWS V13.01,2013-06-23 05:47:00,
2013-06-23 00:50:00,82.9,69.9,29.87,South,172,4.0,12.0,65,0.00,,,0.00,VWS V15.00,2013-06-23 05:50:00,
2013-06-23 00:52:00,80.8,70.1,29.87,WSW,240,15.0,17.0,70,0.00,,,0.00,VWS V13.01,2013-06-23 05:52:00,
2013-06-23 00:57:00,80.7,70.0,29.87,SSW,192,2.0,17.0,70,0.00,,,0.00,VWS V13.01,2013-06-23 05:57:00,
2013-06-23 01:00:00,82.5,70.0,29.88,SSW,195,6.0,15.0,66,0.00,,,0.00,VWS V15.00,2013-06-23 06:00:00,
2013-06-23 01:02:00,80.5,70.2,29.87,SSE,164,0.0,0.0,71,0.00,,,0.00,VWS V13.01,2013-06-23 06:02:00,
2013-06-23 01:07:00,80.3,70.1,29.87,South,191,2.0,14.0,71,0.00,,,0.00,VWS V13.01,2013-06-23 06:07:00,
2013-06-23 01:10:00,82.2,70.2,29.88,SSW,196,0.0,9.0,67,0.00,,,0.00,VWS V15.00,2013-06-23 06:10:00,
2013-06-23 01:12:00,80.2,69.9,29.87,SE,142,4.0,4.0,71,0.00,,,0.00,VWS V13.01,2013-06-23 06:12:00,
2013-06-23 01:17:00,80.1,69.9,29.87,SE,134,0.0,14.0,71,0.00,,,0.00,VWS V13.01,2013-06-23 06:17:00,
2013-06-23 01:20:00,81.8,70.2,29.87,South,185,0.0,14.0,68,0.00,,,0.00,VWS V15.00,2013-06-23 06:20:00,
2013-06-23 01:22:00,80.0,69.8,29.87,SSW,208,0.0,0.0,71,0.00,,,0.00,VWS V13.01,2013-06-23 06:22:00,
2013-06-23 01:27:00,79.8,70.0,29.87,SSE,159,12.0,12.0,72,0.00,,,0.00,VWS V13.01,2013-06-23 06:27:00,
2013-06-23 01:30:00,81.5,69.9,29.88,SSE,149,0.0,11.0,68,0.00,,,0.00,VWS V15.00,2013-06-23 06:30:00,
2013-06-23 01:32:00,79.7,69.9,29.87,South,190,7.0,10.0,72,0.00,,,0.00,VWS V13.01,2013-06-23 06:32:00,
2013-06-23 01:37:00,79.6,69.8,29.87,South,178,7.0,15.0,72,0.00,,,0.00,VWS V13.01,2013-06-23 06:37:00,
2013-06-23 01:40:00,81.2,70.1,29.88,SSW,213,6.0,16.0,69,0.00,,,0.00,VWS V15.00,2013-06-23 06:40:00,
2013-06-23 01:42:00,79.4,69.6,29.87,South,172,4.0,9.0,72,0.00,,,0.00,VWS V13.01,2013-06-23 06:42:00,
2013-06-23 01:47:00,79.3,69.9,29.86,SSE,161,12.0,16.0,73,0.00,,,0.00,VWS V13.01,2013-06-23 06:47:00,
2013-06-23 01:50:00,80.9,70.2,29.87,South,172,0.0,14.0,70,0.00,,,0.00,VWS V15.00,2013-06-23 06:50:00,
2013-06-23 01:53:00,79.2,69.8,29.86,SSE,153,2.0,9.0,73,0.00,,,0.00,VWS V13.01,2013-06-23 06:53:00,
2013-06-23 01:58:00,79.1,69.7,29.86,SSW,193,0.0,9.0,73,0.00,,,0.00,VWS V13.01,2013-06-23 06:58:00,
2013-06-23 02:00:00,80.5,70.2,29.87,South,190,0.0,17.0,71,0.00,,,0.00,VWS V15.00,2013-06-23 07:00:00,
2013-06-23 02:03:00,79.0,70.0,29.87,SSE,155,0.0,7.0,74,0.00,,,0.00,VWS V13.01,2013-06-23 07:03:00,
2013-06-23 02:08:00,78.9,70.3,29.87,SSE,163,0.0,8.0,75,0.00,,,0.00,VWS V13.01,2013-06-23 07:08:00,
2013-06-23 02:10:00,80.3,70.1,29.87,SE,142,0.0,14.0,71,0.00,,,0.00,VWS V15.00,2013-06-23 07:10:00,
2013-06-23 02:13:00,78.7,70.1,29.87,South,185,0.0,3.0,75,0.00,,,0.00,VWS V13.01,2013-06-23 07:13:00,
2013-06-23 02:18:00,78.7,70.5,29.87,South,173,1.0,16.0,76,0.00,,,0.00,VWS V13.01,2013-06-23 07:18:00,
2013-06-23 02:20:00,80.0,69.8,29.87,SSW,210,0.0,14.0,71,0.00,,,0.00,VWS V15.00,2013-06-23 07:20:00,
2013-06-23 02:23:00,78.5,70.3,29.87,SSW,198,0.0,4.0,76,0.00,,,0.00,VWS V13.01,2013-06-23 07:23:00,
2013-06-23 02:28:00,78.3,70.1,29.87,South,189,1.0,10.0,76,0.00,,,0.00,VWS V13.01,2013-06-23 07:28:00,
2013-06-23 02:30:00,79.8,70.0,29.87,SE,134,7.0,12.0,72,0.00,,,0.00,VWS V15.00,2013-06-23 07:30:00,
2013-06-23 02:33:00,78.1,70.3,29.87,South,188,0.0,8.0,77,0.00,,,0.00,VWS V13.01,2013-06-23 07:33:00,
2013-06-23 02:38:00,78.0,70.2,29.87,SSW,200,0.0,10.0,77,0.00,,,0.00,VWS V13.01,2013-06-23 07:38:00,
2013-06-23 02:40:00,79.5,69.7,29.87,South,179,0.0,15.0,72,0.00,,,0.00,VWS V15.00,2013-06-23 07:40:00,
2013-06-23 02:43:00,77.8,70.4,29.87,SSW,195,0.0,9.0,78,0.00,,,0.00,VWS V13.01,2013-06-23 07:43:00,
2013-06-23 02:48:00,77.7,70.3,29.86,South,182,0.0,10.0,78,0.00,,,0.00,VWS V13.01,2013-06-23 07:48:00,
2013-06-23 02:50:00,79.3,69.9,29.86,South,184,9.0,16.0,73,0.00,,,0.00,VWS V15.00,2013-06-23 07:50:00,
2013-06-23 02:53:00,77.6,70.6,29.86,SW,219,0.0,11.0,79,0.00,,,0.00,VWS V13.01,2013-06-23 07:53:00,
2013-06-23 02:58:00,77.5,70.5,29.86,SSW,196,0.0,11.0,79,0.00,,,0.00,VWS V13.01,2013-06-23 07:58:00,
2013-06-23 03:00:00,79.0,70.0,29.87,SSE,149,7.0,9.0,74,0.00,,,0.00,VWS V15.00,2013-06-23 08:00:00,
2013-06-23 03:03:00,77.5,70.5,29.86,South,180,3.0,7.0,79,0.00,,,0.00,VWS V13.01,2013-06-23 08:03:00,
2013-06-23 03:08:00,77.4,70.8,29.86,SSW,212,0.0,11.0,80,0.00,,,0.00,VWS V13.01,2013-06-23 08:08:00,
2013-06-23 03:10:00,78.7,70.1,29.87,South,187,3.0,12.0,75,0.00,,,0.00,VWS V15.00,2013-06-23 08:10:00,
2013-06-23 03:13:00,77.3,70.7,29.86,SSE,148,0.0,5.0,80,0.00,,,0.00,VWS V13.01,2013-06-23 08:13:00,
2013-06-23 03:18:00,77.2,70.6,29.86,South,179,9.0,10.0,80,0.00,,,0.00,VWS V13.01,2013-06-23 08:18:00,
2013-06-23 03:20:00,78.6,70.4,29.87,South,178,0.0,16.0,76,0.00,,,0.00,VWS V15.00,2013-06-23 08:20:00,
2013-06-23 03:23:00,77.1,70.8,29.86,SSE,153,0.0,9.0,81,0.00,,,0.00,VWS V13.01,2013-06-23 08:23:00,
2013-06-23 03:28:00,77.0,70.7,29.86,South,182,5.0,9.0,81,0.00,,,0.00,VWS V13.01,2013-06-23 08:28:00,
2013-06-23 03:30:00,78.2,70.0,29.87,SSW,200,7.0,13.0,76,0.00,,,0.00,VWS V15.00,2013-06-23 08:30:00,
2013-06-23 03:33:00,76.9,71.0,29.86,SSW,194,0.0,6.0,82,0.00,,,0.00,VWS V13.01,2013-06-23 08:33:00,
2013-06-23 03:38:00,76.8,70.9,29.86,South,177,8.0,12.0,82,0.00,,,0.00,VWS V13.01,2013-06-23 08:38:00,
2013-06-23 03:40:00,77.9,70.1,29.87,SSW,200,7.0,11.0,77,0.00,,,0.00,VWS V15.00,2013-06-23 08:40:00,
2013-06-23 03:43:00,76.7,70.8,29.86,SSW,198,9.0,13.0,82,0.00,,,0.00,VWS V13.01,2013-06-23 08:43:00,
2013-06-23 03:48:00,76.7,70.8,29.86,SSW,207,4.0,13.0,82,0.00,,,0.00,VWS V13.01,2013-06-23 08:48:00,
2013-06-23 03:50:00,77.7,70.3,29.86,South,188,0.0,10.0,78,0.00,,,0.00,VWS V15.00,2013-06-23 08:50:00,
2013-06-23 03:53:00,76.7,71.2,29.86,SW,214,5.0,7.0,83,0.00,,,0.00,VWS V13.01,2013-06-23 08:53:00,
2013-06-23 03:58:00,76.7,71.2,29.86,SSW,209,0.0,12.0,83,0.00,,,0.00,VWS V13.01,2013-06-23 08:58:00,
2013-06-23 04:00:00,77.5,70.5,29.86,South,187,0.0,11.0,79,0.00,,,0.00,VWS V15.00,2013-06-23 09:00:00,
2013-06-23 04:03:00,76.7,71.2,29.86,SSW,192,0.0,8.0,83,0.00,,,0.00,VWS V13.01,2013-06-23 09:03:00,
2013-06-23 04:08:00,76.7,71.2,29.86,SSW,194,5.0,13.0,83,0.00,,,0.00,VWS V13.01,2013-06-23 09:08:00,
2013-06-23 04:10:00,77.3,70.7,29.86,SSW,195,5.0,11.0,80,0.00,,,0.00,VWS V15.00,2013-06-23 09:10:00,
2013-06-23 04:13:00,76.7,71.2,29.86,South,190,6.0,8.0,83,0.00,,,0.00,VWS V13.01,2013-06-23 09:13:00,
2013-06-23 04:18:00,76.7,71.2,29.86,SW,224,2.0,13.0,83,0.00,,,0.00,VWS V13.01,2013-06-23 09:18:00,
2013-06-23 04:20:00,77.1,70.8,29.86,SSE,156,9.0,13.0,81,0.00,,,0.00,VWS V15.00,2013-06-23 09:20:00,
2013-06-23 04:23:00,76.7,71.2,29.86,South,183,4.0,10.0,83,0.00,,,0.00,VWS V13.01,2013-06-23 09:23:00,
2013-06-23 04:28:00,76.7,70.8,29.86,SSW,206,1.0,10.0,82,0.00,,,0.00,VWS V13.01,2013-06-23 09:28:00,
2013-06-23 04:30:00,76.9,70.6,29.86,SSE,152,0.0,9.0,81,0.00,,,0.00,VWS V15.00,2013-06-23 09:30:00,
2013-06-23 04:33:00,76.6,70.7,29.86,SSE,167,6.0,11.0,82,0.00,,,0.00,VWS V13.01,2013-06-23 09:33:00,
2013-06-23 04:38:00,76.6,70.7,29.86,SSW,192,0.0,11.0,82,0.00,,,0.00,VWS V13.01,2013-06-23 09:38:00,
2013-06-23 04:40:00,76.8,70.9,29.86,SW,218,0.0,12.0,82,0.00,,,0.00,VWS V15.00,2013-06-23 09:40:00,
2013-06-23 04:43:00,76.6,71.1,29.86,SSE,159,7.0,9.0,83,0.00,,,0.00,VWS V13.01,2013-06-23 09:43:00,
2013-06-23 04:48:00,76.5,71.0,29.86,SSW,207,11.0,11.0,83,0.00,,,0.00,VWS V13.01,2013-06-23 09:48:00,
2013-06-23 04:50:00,76.7,71.2,29.86,SSW,195,2.0,13.0,83,0.00,,,0.00,VWS V15.00,2013-06-23 09:50:00,
2013-06-23 04:53:00,76.5,71.0,29.86,SSE,159,0.0,0.0,83,0.00,,,0.00,VWS V13.01,2013-06-23 09:53:00,
2013-06-23 04:58:00,76.5,71.0,29.86,South,178,0.0,9.0,83,0.00,,,0.00,VWS V13.01,2013-06-23 09:58:00,
2013-06-23 05:00:00,76.7,71.2,29.86,SSW,198,7.0,12.0,83,0.00,,,0.00,VWS V15.00,2013-06-23 10:00:00,
2013-06-23 05:03:00,76.5,71.0,29.86,SSW,193,0.0,10.0,83,0.00,,,0.00,VWS V13.01,2013-06-23 10:03:00,
2013-06-23 05:08:00,76.4,70.9,29.86,SSE,160,3.0,10.0,83,0.00,,,0.00,VWS V13.01,2013-06-23 10:08:00,
2013-06-23 05:10:00,76.7,71.2,29.86,SSW,199,3.0,13.0,83,0.00,,,0.00,VWS V15.00,2013-06-23 10:10:00,
2013-06-23 05:13:00,76.4,70.9,29.86,SSW,200,3.0,10.0,83,0.00,,,0.00,VWS V13.01,2013-06-23 10:13:00,
2013-06-23 05:18:00,76.3,71.1,29.86,SSW,194,0.0,10.0,84,0.00,,,0.00,VWS V13.01,2013-06-23 10:18:00,
2013-06-23 05:20:00,76.7,71.2,29.86,South,173,9.0,13.0,83,0.00,,,0.00,VWS V15.00,2013-06-23 10:20:00,
2013-06-23 05:23:00,76.3,71.1,29.86,South,169,0.0,13.0,84,0.00,,,0.00,VWS V13.01,2013-06-23 10:23:00,
2013-06-23 05:28:00,76.3,71.1,29.86,South,176,0.0,13.0,84,0.00,,,0.00,VWS V13.01,2013-06-23 10:28:00,
2013-06-23 05:30:00,76.7,70.8,29.86,SSW,194,0.0,10.0,82,0.00,,,0.00,VWS V15.00,2013-06-23 10:30:00,
2013-06-23 05:33:00,76.3,71.1,29.86,South,173,0.0,0.0,84,0.00,,,0.00,VWS V13.01,2013-06-23 10:33:00,
2013-06-23 05:38:00,76.3,71.1,29.86,SSE,157,0.0,9.0,84,0.00,,,0.00,VWS V13.01,2013-06-23 10:38:00,
2013-06-23 05:40:00,76.6,71.1,29.86,SSE,167,1.0,11.0,83,0.00,,,0.00,VWS V15.00,2013-06-23 10:40:00,
2013-06-23 05:43:00,76.3,71.1,29.86,South,190,0.0,7.0,84,0.00,,,0.00,VWS V13.01,2013-06-23 10:43:00,
2013-06-23 05:48:00,76.3,71.1,29.85,SSW,199,0.0,7.0,84,0.00,,,0.00,VWS V13.01,2013-06-23 10:48:00,
2013-06-23 05:50:00,76.6,71.1,29.86,SSE,159,0.0,13.0,83,0.00,,,0.00,VWS V15.00,2013-06-23 10:50:00,
2013-06-23 05:53:00,76.2,71.4,29.85,South,191,6.0,10.0,85,0.00,,,0.00,VWS V13.01,2013-06-23 10:53:00,
2013-06-23 05:58:00,76.2,71.4,29.85,SSE,164,0.0,10.0,85,0.00,,,0.00,VWS V13.01,2013-06-23 10:58:00,
2013-06-23 06:00:00,76.5,71.0,29.86,SSW,205,10.0,10.0,83,0.00,,,0.00,VWS V15.00,2013-06-23 11:00:00,
2013-06-23 06:03:00,76.2,71.4,29.86,SSE,164,0.0,0.0,85,0.00,,,0.00,VWS V13.01,2013-06-23 11:03:00,
2013-06-23 06:08:00,76.2,71.4,29.86,SSE,161,0.0,0.0,85,0.00,,,0.00,VWS V13.01,2013-06-23 11:08:00,
2013-06-23 06:10:00,76.4,70.9,29.86,SSW,192,8.0,10.0,83,0.00,,,0.00,VWS V15.00,2013-06-23 11:10:00,
2013-06-23 06:13:00,76.2,71.4,29.86,SSE,165,0.0,7.0,85,0.00,,,0.00,VWS V13.01,2013-06-23 11:13:00,
2013-06-23 06:18:00,76.2,71.4,29.86,SSE,155,0.0,7.0,85,0.00,,,0.00,VWS V13.01,2013-06-23 11:18:00,
2013-06-23 06:20:00,76.3,71.1,29.86,South,190,0.0,10.0,84,0.00,,,0.00,VWS V15.00,2013-06-23 11:20:00,
2013-06-23 06:23:00,76.1,71.3,29.86,South,179,0.0,0.0,85,0.00,,,0.00,VWS V13.01,2013-06-23 11:23:00,
2013-06-23 06:29:00,76.1,71.3,29.86,SSW,197,0.0,8.0,85,0.00,,,0.00,VWS V13.01,2013-06-23 11:29:00,
2013-06-23 06:30:00,76.3,71.1,29.86,SSW,207,0.0,13.0,84,0.00,,,0.00,VWS V15.00,2013-06-23 11:30:00,
2013-06-23 06:34:00,76.2,71.4,29.86,South,179,0.0,0.0,85,0.00,,,0.00,VWS V13.01,2013-06-23 11:34:00,
2013-06-23 06:39:00,76.2,71.4,29.86,SSE,165,7.0,7.0,85,0.00,,,0.00,VWS V13.01,2013-06-23 11:39:00,
2013-06-23 06:40:00,76.3,71.1,29.86,South,171,0.0,9.0,84,0.00,,,0.00,VWS V15.00,2013-06-23 11:40:00,
2013-06-23 06:44:00,76.2,71.4,29.86,South,178,0.0,6.0,85,0.00,,,0.00,VWS V13.01,2013-06-23 11:44:00,
2013-06-23 06:49:00,76.2,71.4,29.86,SSE,161,0.0,8.0,85,0.00,,,0.00,VWS V13.01,2013-06-23 11:49:00,
2013-06-23 06:50:00,76.2,71.4,29.85,SSW,195,0.0,7.0,85,0.00,,,0.00,VWS V15.00,2013-06-23 11:50:00,
2013-06-23 06:54:00,76.2,71.4,29.86,South,171,0.0,0.0,85,0.00,,,0.00,VWS V13.01,2013-06-23 11:54:00,
2013-06-23 06:59:00,76.2,71.4,29.86,SSE,159,0.0,3.0,85,0.00,,,0.00,VWS V13.01,2013-06-23 11:59:00,
2013-06-23 07:00:00,76.2,71.4,29.86,South,170,0.0,10.0,85,0.00,,,0.00,VWS V15.00,2013-06-23 12:00:00,
2013-06-23 07:04:00,76.2,71.4,29.87,South,187,0.0,5.0,85,0.00,,,0.00,VWS V13.01,2013-06-23 12:04:00,
2013-06-23 07:09:00,76.3,71.5,29.87,South,179,5.0,7.0,85,0.00,,,0.00,VWS V13.01,2013-06-23 12:09:00,
2013-06-23 07:10:00,76.2,71.4,29.86,South,174,0.0,1.0,85,0.00,,,0.00,VWS V15.00,2013-06-23 12:10:00,
2013-06-23 07:14:00,76.4,71.6,29.87,South,176,0.0,3.0,85,0.00,,,0.00,VWS V13.01,2013-06-23 12:14:00,
2013-06-23 07:19:00,76.4,71.6,29.87,SE,145,0.0,8.0,85,0.00,,,0.00,VWS V13.01,2013-06-23 12:19:00,
2013-06-23 07:20:00,76.2,71.4,29.86,SSE,155,0.0,7.0,85,0.00,,,0.00,VWS V15.00,2013-06-23 12:20:00,
2013-06-23 07:24:00,76.5,71.7,29.87,South,180,0.0,0.0,85,0.00,,,0.00,VWS V13.01,2013-06-23 12:24:00,
2013-06-23 07:29:00,76.7,71.9,29.87,SSW,192,3.0,8.0,85,0.00,,,0.00,VWS V13.01,2013-06-23 12:29:00,
2013-06-23 07:30:00,76.2,71.4,29.86,SSE,164,0.0,8.0,85,0.00,,,0.00,VWS V15.00,2013-06-23 12:30:00,
2013-06-23 07:34:00,76.8,71.6,29.87,SSW,194,0.0,0.0,84,0.00,,,0.00,VWS V13.01,2013-06-23 12:34:00,
2013-06-23 07:39:00,76.9,71.7,29.87,SW,219,4.0,10.0,84,0.00,,,0.00,VWS V13.01,2013-06-23 12:39:00,
2013-06-23 07:40:00,76.2,71.4,29.86,SSE,167,0.0,7.0,85,0.00,,,0.00,VWS V15.00,2013-06-23 12:40:00,
2013-06-23 07:44:00,77.2,72.0,29.87,SW,227,0.0,6.0,84,0.00,,,0.00,VWS V13.01,2013-06-23 12:44:00,
2013-06-23 07:49:00,77.3,71.7,29.88,SW,230,7.0,11.0,83,0.00,,,0.00,VWS V13.01,2013-06-23 12:49:00,
2013-06-23 07:50:00,76.2,71.4,29.86,SSE,155,0.0,8.0,85,0.00,,,0.00,VWS V15.00,2013-06-23 12:50:00,
2013-06-23 07:54:00,77.5,71.9,29.88,SSW,200,6.0,10.0,83,0.00,,,0.00,VWS V13.01,2013-06-23 12:54:00,
2013-06-23 07:59:00,77.7,72.1,29.88,SSW,198,0.0,12.0,83,0.00,,,0.00,VWS V13.01,2013-06-23 12:59:00,
2013-06-23 08:00:00,76.2,71.4,29.87,SSE,156,0.0,9.0,85,0.00,,,0.00,VWS V15.00,2013-06-23 13:00:00,
2013-06-23 08:04:00,77.8,71.9,29.88,SSW,198,0.0,7.0,82,0.00,,,0.00,VWS V13.01,2013-06-23 13:04:00,
2013-06-23 08:09:00,77.9,72.0,29.88,SW,222,9.0,11.0,82,0.00,,,0.00,VWS V13.01,2013-06-23 13:09:00,
2013-06-23 08:10:00,76.3,71.5,29.87,South,173,0.0,7.0,85,0.00,,,0.00,VWS V15.00,2013-06-23 13:10:00,
2013-06-23 08:14:00,78.0,71.7,29.88,SSW,199,12.0,14.0,81,0.00,,,0.00,VWS V13.01,2013-06-23 13:14:00,
2013-06-23 08:19:00,78.1,71.8,29.88,SSW,202,0.0,14.0,81,0.00,,,0.00,VWS V13.01,2013-06-23 13:19:00,
2013-06-23 08:20:00,76.5,71.7,29.87,SSW,200,0.0,8.0,85,0.00,,,0.00,VWS V15.00,2013-06-23 13:20:00,
2013-06-23 08:24:00,78.2,71.5,29.88,SSW,196,7.0,12.0,80,0.00,,,0.00,VWS V13.01,2013-06-23 13:24:00,
2013-06-23 08:29:00,78.3,72.0,29.88,SSW,194,0.0,13.0,81,0.00,,,0.00,VWS V13.01,2013-06-23 13:29:00,
2013-06-23 08:30:00,76.7,71.5,29.87,SSW,195,0.0,9.0,84,0.00,,,0.00,VWS V15.00,2013-06-23 13:30:00,
2013-06-23 08:34:00,78.4,71.7,29.88,SSW,203,13.0,15.0,80,0.00,,,0.00,VWS V13.01,2013-06-23 13:34:00,
2013-06-23 08:39:00,78.6,71.6,29.88,SSW,200,10.0,18.0,79,0.00,,,0.00,VWS V13.01,2013-06-23 13:39:00,
2013-06-23 08:40:00,77.1,71.9,29.87,South,184,0.0,10.0,84,0.00,,,0.00,VWS V15.00,2013-06-23 13:40:00,
2013-06-23 08:44:00,78.7,71.3,29.88,SSW,199,9.0,15.0,78,0.00,,,0.00,VWS V13.01,2013-06-23 13:44:00,
2013-06-23 08:49:00,78.7,71.3,29.89,SW,220,6.0,17.0,78,0.00,,,0.00,VWS V13.01,2013-06-23 13:49:00,
2013-06-23 08:50:00,77.5,71.9,29.88,SSW,194,7.0,11.0,83,0.00,,,0.00,VWS V15.00,2013-06-23 13:50:00,
2013-06-23 08:54:00,78.7,70.9,29.89,WSW,240,6.0,14.0,77,0.00,,,0.00,VWS V13.01,2013-06-23 13:54:00,
2013-06-23 08:59:00,78.8,71.0,29.89,SSW,206,8.0,15.0,77,0.00,,,0.00,VWS V13.01,2013-06-23 13:59:00,
2013-06-23 09:00:00,77.8,71.9,29.88,SSW,195,0.0,12.0,82,0.00,,,0.00,VWS V15.00,2013-06-23 14:00:00,
2013-06-23 09:04:00,78.9,70.3,29.89,SSW,194,12.0,15.0,75,0.00,,,0.00,VWS V13.01,2013-06-23 14:04:00,
2013-06-23 09:09:00,79.1,70.1,29.89,SSW,211,7.0,15.0,74,0.00,,,0.00,VWS V13.01,2013-06-23 14:09:00,
2013-06-23 09:10:00,77.9,71.6,29.88,SW,236,6.0,11.0,81,0.00,,,0.00,VWS V15.00,2013-06-23 14:10:00,
2013-06-23 09:14:00,79.3,70.3,29.89,SW,222,10.0,15.0,74,0.00,,,0.00,VWS V13.01,2013-06-23 14:14:00,
2013-06-23 09:19:00,79.8,70.8,29.89,SW,215,12.0,15.0,74,0.00,,,0.00,VWS V13.01,2013-06-23 14:19:00,
2013-06-23 09:20:00,78.2,71.9,29.88,SSW,209,0.0,14.0,81,0.00,,,0.00,VWS V15.00,2013-06-23 14:20:00,
2013-06-23 09:24:00,80.3,70.9,29.89,SW,214,9.0,13.0,73,0.00,,,0.00,VWS V13.01,2013-06-23 14:24:00,
2013-06-23 09:29:00,80.7,70.8,29.89,WSW,240,6.0,13.0,72,0.00,,,0.00,VWS V13.01,2013-06-23 14:29:00,
2013-06-23 09:30:00,78.3,71.6,29.88,SSW,202,13.0,13.0,80,0.00,,,0.00,VWS V15.00,2013-06-23 14:30:00,
2013-06-23 09:34:00,81.1,71.2,29.89,SSW,201,9.0,16.0,72,0.00,,,0.00,VWS V13.01,2013-06-23 14:34:00,
2013-06-23 09:39:00,81.0,71.1,29.89,SW,232,8.0,16.0,72,0.00,,,0.00,VWS V13.01,2013-06-23 14:39:00,
2013-06-23 09:40:00,78.7,71.6,29.88,SSW,207,13.0,18.0,79,0.00,,,0.00,VWS V15.00,2013-06-23 14:40:00,
2013-06-23 09:44:00,81.4,71.5,29.89,SSW,200,14.0,14.0,72,0.00,,,0.00,VWS V13.01,2013-06-23 14:44:00,
2013-06-23 09:49:00,81.7,71.0,29.89,SSW,207,5.0,14.0,70,0.00,,,0.00,VWS V13.01,2013-06-23 14:49:00,
2013-06-23 09:50:00,78.7,70.9,29.89,SW,216,7.0,17.0,77,0.00,,,0.00,VWS V15.00,2013-06-23 14:50:00,
2013-06-23 09:54:00,82.0,71.3,29.89,SW,229,13.0,14.0,70,0.00,,,0.00,VWS V13.01,2013-06-23 14:54:00,
2013-06-23 09:59:00,82.1,70.9,29.89,SW,214,10.0,18.0,69,0.00,,,0.00,VWS V13.01,2013-06-23 14:59:00,
2013-06-23 10:00:00,78.8,70.6,29.89,SSW,197,6.0,15.0,76,0.00,,,0.00,VWS V15.00,2013-06-23 15:00:00,
2013-06-23 10:04:00,82.1,71.3,29.89,South,180,12.0,12.0,70,0.00,,,0.00,VWS V13.01,2013-06-23 15:04:00,
2013-06-23 10:09:00,82.4,71.2,29.89,SSW,196,6.0,15.0,69,0.00,,,0.00,VWS V13.01,2013-06-23 15:09:00,
2013-06-23 10:10:00,79.2,70.2,29.89,SSW,196,11.0,15.0,74,0.00,,,0.00,VWS V15.00,2013-06-23 15:10:00,
2013-06-23 10:14:00,83.0,71.4,29.89,SSW,203,4.0,10.0,68,0.00,,,0.00,VWS V13.01,2013-06-23 15:14:00,
2013-06-23 10:19:00,83.6,71.1,29.89,SSW,201,9.0,14.0,66,0.00,,,0.00,VWS V13.01,2013-06-23 15:19:00,
2013-06-23 10:20:00,80.0,71.0,29.89,SSW,198,13.0,15.0,74,0.00,,,0.00,VWS V15.00,2013-06-23 15:20:00,
2013-06-23 10:24:00,83.9,71.3,29.89,SW,223,10.0,13.0,66,0.00,,,0.00,VWS V13.01,2013-06-23 15:24:00,
2013-06-23 10:29:00,84.3,70.8,29.89,SSE,159,9.0,13.0,64,0.00,,,0.00,VWS V13.01,2013-06-23 15:29:00,
2013-06-23 10:30:00,80.9,71.0,29.89,SW,234,8.0,13.0,72,0.00,,,0.00,VWS V15.00,2013-06-23 15:30:00,
2013-06-23 10:34:00,84.3,70.8,29.89,SW,214,5.0,15.0,64,0.00,,,0.00,VWS V13.01,2013-06-23 15:34:00,
2013-06-23 10:39:00,85.1,68.7,29.89,SW,223,9.0,15.0,58,0.00,,,0.00,VWS V13.01,2013-06-23 15:39:00,
2013-06-23 10:40:00,81.0,70.7,29.89,SSW,209,7.0,16.0,71,0.00,,,0.00,VWS V15.00,2013-06-23 15:40:00,
2013-06-23 10:44:00,86.0,66.9,29.89,SSW,203,13.0,21.0,53,0.00,,,0.00,VWS V13.01,2013-06-23 15:44:00,
2013-06-23 10:49:00,86.0,67.4,29.89,South,190,13.0,24.0,54,0.00,,,0.00,VWS V13.01,2013-06-23 15:49:00,
2013-06-23 10:50:00,81.8,71.5,29.89,SSW,211,6.0,14.0,71,0.00,,,0.00,VWS V15.00,2013-06-23 15:50:00,
2013-06-23 10:54:00,86.6,68.0,29.89,SW,236,8.0,13.0,54,0.00,,,0.00,VWS V13.01,2013-06-23 15:54:00,
2013-06-23 10:59:00,86.6,67.4,29.89,WSW,240,11.0,17.0,53,0.00,,,0.00,VWS V13.01,2013-06-23 15:59:00,
2013-06-23 11:00:00,82.0,70.8,29.89,SW,219,6.0,18.0,69,0.00,,,0.00,VWS V15.00,2013-06-23 16:00:00,
2013-06-23 11:04:00,87.0,68.9,29.89,SW,222,7.0,16.0,55,0.00,,,0.00,VWS V13.01,2013-06-23 16:04:00,
2013-06-23 11:09:00,87.0,68.4,29.89,South,178,7.0,16.0,54,0.00,,,0.00,VWS V13.01,2013-06-23 16:09:00,
2013-06-23 11:10:00,82.7,71.9,29.89,South,187,5.0,15.0,70,0.00,,,0.00,VWS V15.00,2013-06-23 16:10:00,
2013-06-23 11:15:00,86.8,68.7,29.89,SW,234,7.0,15.0,55,0.00,,,0.00,VWS V13.01,2013-06-23 16:15:00,
2013-06-23 11:20:00,87.4,68.7,29.89,SSW,205,0.0,15.0,54,0.00,,,0.00,VWS V13.01,2013-06-23 16:20:00,
2013-06-23 11:25:00,87.7,68.5,29.89,SW,215,7.0,15.0,53,0.00,,,0.00,VWS V13.01,2013-06-23 16:25:00,
2013-06-23 11:30:00,87.8,68.0,29.89,SSW,200,3.0,15.0,52,0.00,,,0.00,VWS V13.01,2013-06-23 16:30:00,
2013-06-23 11:35:00,88.5,68.6,29.89,SW,215,5.0,14.0,52,0.00,,,0.00,VWS V13.01,2013-06-23 16:35:00,
2013-06-23 11:40:00,88.8,68.9,29.89,SSW,207,10.0,14.0,52,0.00,,,0.00,VWS V13.01,2013-06-23 16:40:00,
2013-06-23 11:45:00,89.3,68.8,29.89,South,190,5.0,15.0,51,0.00,,,0.00,VWS V13.01,2013-06-23 16:45:00,
2013-06-23 11:50:00,89.0,68.0,29.89,SSW,203,5.0,17.0,50,0.00,,,0.00,VWS V13.01,2013-06-23 16:50:00,
2013-06-23 11:55:00,89.1,68.1,29.89,WSW,256,6.0,17.0,50,0.00,,,0.00,VWS V13.01,2013-06-23 16:55:00,
2013-06-23 11:57:00,89.4,68.3,29.89,SSW,211,7.0,17.0,50,0.00,,,0.00,VWS V13.01,2013-06-23 16:57:00,
2013-06-23 11:58:00,89.8,68.1,29.89,SW,215,9.0,17.0,49,0.00,,,0.00,VWS V13.01,2013-06-23 16:58:00,
2013-06-23 12:00:00,86.7,68.6,29.89,SW,232,7.0,17.0,55,0.00,,,0.00,VWS V15.00,2013-06-23 17:00:00,
2013-06-23 12:03:00,90.3,67.3,29.89,SSW,196,3.0,14.0,47,0.00,,,0.00,VWS V13.01,2013-06-23 17:03:00,
2013-06-23 12:08:00,90.2,66.6,29.89,SW,224,8.0,14.0,46,0.00,,,0.00,VWS V13.01,2013-06-23 17:08:00,
2013-06-23 12:10:00,86.8,68.7,29.89,SSW,200,10.0,16.0,55,0.00,,,0.00,VWS V15.00,2013-06-23 17:10:00,
2013-06-23 12:13:00,90.1,66.6,29.89,SSW,198,15.0,16.0,46,0.00,,,0.00,VWS V13.01,2013-06-23 17:13:00,
2013-06-23 12:18:00,90.5,66.9,29.89,SSW,208,7.0,17.0,46,0.00,,,0.00,VWS V13.01,2013-06-23 17:18:00,
2013-06-23 12:20:00,87.7,69.0,29.89,SW,215,15.0,15.0,54,0.00,,,0.00,VWS V15.00,2013-06-23 17:20:00,
2013-06-23 12:23:00,89.8,65.6,29.89,SSW,200,16.0,16.0,45,0.00,,,0.00,VWS V13.01,2013-06-23 17:23:00,
2013-06-23 12:28:00,89.5,66.6,29.89,SE,138,1.0,16.0,47,0.00,,,0.00,VWS V13.01,2013-06-23 17:28:00,
2013-06-23 12:30:00,87.9,69.2,29.89,SW,226,6.0,15.0,54,0.00,,,0.00,VWS V15.00,2013-06-23 17:30:00,
2013-06-23 12:33:00,89.8,66.9,29.89,SW,218,9.0,14.0,47,0.00,,,0.00,VWS V13.01,2013-06-23 17:33:00,
2013-06-23 12:38:00,89.7,66.2,29.89,South,188,4.0,16.0,46,0.00,,,0.00,VWS V13.01,2013-06-23 17:38:00,
2013-06-23 12:40:00,89.0,69.1,29.89,SSW,200,9.0,14.0,52,0.00,,,0.00,VWS V15.00,2013-06-23 17:40:00,
2013-06-23 12:43:00,90.0,67.1,29.89,WSW,238,7.0,15.0,47,0.00,,,0.00,VWS V13.01,2013-06-23 17:43:00,
2013-06-23 12:48:00,90.5,65.6,29.89,SSW,209,6.0,18.0,44,0.00,,,0.00,VWS V13.01,2013-06-23 17:48:00,
2013-06-23 12:50:00,89.0,68.0,29.89,SSW,192,3.0,17.0,50,0.00,,,0.00,VWS V15.00,2013-06-23 17:50:00,
2013-06-23 12:53:00,90.6,67.0,29.89,SE,132,8.0,12.0,46,0.00,,,0.00,VWS V13.01,2013-06-23 17:53:00,
2013-06-23 12:58:00,90.1,67.8,29.89,SSW,196,14.0,17.0,48,0.00,,,0.00,VWS V13.01,2013-06-23 17:58:00,
2013-06-23 13:00:00,90.4,67.4,29.89,SSW,198,14.0,17.0,47,0.00,,,0.00,VWS V15.00,2013-06-23 18:00:00,
2013-06-23 13:03:00,89.8,67.5,29.89,SE,134,0.0,14.0,48,0.00,,,0.00,VWS V13.01,2013-06-23 18:03:00,
2013-06-23 13:08:00,89.4,65.9,29.89,SSW,202,12.0,18.0,46,0.00,,,0.00,VWS V13.01,2013-06-23 18:08:00,
2013-06-23 13:10:00,90.4,67.4,29.89,SSW,198,13.0,16.0,47,0.00,,,0.00,VWS V15.00,2013-06-23 18:10:00,
2013-06-23 13:13:00,89.3,65.2,29.89,South,172,8.0,17.0,45,0.00,,,0.00,VWS V13.01,2013-06-23 18:13:00,
2013-06-23 13:18:00,89.3,65.8,29.88,SSE,166,6.0,17.0,46,0.00,,,0.00,VWS V13.01,2013-06-23 18:18:00,
2013-06-23 13:20:00,90.1,65.9,29.89,SW,216,12.0,17.0,45,0.00,,,0.00,VWS V15.00,2013-06-23 18:20:00,
2013-06-23 13:24:00,89.5,67.2,29.88,SSW,211,0.0,15.0,48,0.00,,,0.00,VWS V13.01,2013-06-23 18:24:00,
2013-06-23 13:29:00,90.0,67.1,29.88,South,181,0.0,15.0,47,0.00,,,0.00,VWS V13.01,2013-06-23 18:29:00,
2013-06-23 13:30:00,89.3,65.8,29.89,SW,224,7.0,18.0,46,0.00,,,0.00,VWS V15.00,2013-06-23 18:30:00,
2013-06-23 13:34:00,89.8,66.3,29.88,SW,223,12.0,19.0,46,0.00,,,0.00,VWS V13.01,2013-06-23 18:34:00,
2013-06-23 13:39:00,89.6,64.8,29.88,SSW,207,7.0,19.0,44,0.00,,,0.00,VWS V13.01,2013-06-23 18:39:00,
2013-06-23 13:40:00,90.0,66.5,29.89,SW,221,12.0,21.0,46,0.00,,,0.00,VWS V15.00,2013-06-23 18:40:00,
2013-06-23 13:44:00,89.6,65.5,29.88,SW,214,12.0,13.0,45,0.00,,,0.00,VWS V13.01,2013-06-23 18:44:00,
2013-06-23 13:49:00,89.5,66.0,29.88,South,190,0.0,14.0,46,0.00,,,0.00,VWS V13.01,2013-06-23 18:49:00,
2013-06-23 13:50:00,90.7,67.1,29.89,SSW,211,7.0,18.0,46,0.00,,,0.00,VWS V15.00,2013-06-23 18:50:00,
2013-06-23 13:54:00,89.7,66.8,29.88,South,184,0.0,9.0,47,0.00,,,0.00,VWS V13.01,2013-06-23 18:54:00,
2013-06-23 13:59:00,89.9,67.0,29.88,SW,232,5.0,10.0,47,0.00,,,0.00,VWS V13.01,2013-06-23 18:59:00,
2013-06-23 14:00:00,90.0,67.7,29.89,South,181,0.0,17.0,48,0.00,,,0.00,VWS V15.00,2013-06-23 19:00:00,
2013-06-23 14:04:00,91.0,66.7,29.87,SSW,213,4.0,7.0,45,0.00,,,0.00,VWS V13.01,2013-06-23 19:04:00,
2013-06-23 14:09:00,90.8,66.6,29.87,SSE,165,8.0,15.0,45,0.00,,,0.00,VWS V13.01,2013-06-23 19:09:00,
2013-06-23 14:10:00,89.4,64.6,29.89,South,185,15.0,18.0,44,0.00,,,0.00,VWS V15.00,2013-06-23 19:10:00,
2013-06-23 14:14:00,90.4,66.2,29.87,South,189,0.0,12.0,45,0.00,,,0.00,VWS V13.01,2013-06-23 19:14:00,
2013-06-23 14:19:00,90.8,66.6,29.86,SE,140,3.0,14.0,45,0.00,,,0.00,VWS V13.01,2013-06-23 19:19:00,
2013-06-23 14:20:00,89.4,66.5,29.88,SSW,199,14.0,17.0,47,0.00,,,0.00,VWS V15.00,2013-06-23 19:20:00,
2013-06-23 14:24:00,91.0,65.4,29.86,South,180,13.0,16.0,43,0.00,,,0.00,VWS V13.01,2013-06-23 19:24:00,
2013-06-23 14:29:00,91.4,67.1,29.86,South,175,0.0,16.0,45,0.00,,,0.00,VWS V13.01,2013-06-23 19:29:00,
2013-06-23 14:30:00,89.8,65.6,29.88,South,184,0.0,16.0,45,0.00,,,0.00,VWS V15.00,2013-06-23 19:30:00,
2013-06-23 14:34:00,91.7,66.1,29.86,SSE,148,13.0,13.0,43,0.00,,,0.00,VWS V13.01,2013-06-23 19:34:00,
2013-06-23 14:39:00,91.3,65.0,29.86,South,183,9.0,13.0,42,0.00,,,0.00,VWS V13.01,2013-06-23 19:39:00,
2013-06-23 14:40:00,89.5,65.4,29.88,SSW,195,0.0,19.0,45,0.00,,,0.00,VWS V15.00,2013-06-23 19:40:00,
2013-06-23 14:44:00,91.2,66.9,29.86,SSW,200,0.0,10.0,45,0.00,,,0.00,VWS V13.01,2013-06-23 19:44:00,
2013-06-23 14:49:00,90.9,65.3,29.85,SE,142,10.0,12.0,43,0.00,,,0.00,VWS V13.01,2013-06-23 19:49:00,
2013-06-23 14:50:00,89.7,66.2,29.88,SSW,204,7.0,14.0,46,0.00,,,0.00,VWS V15.00,2013-06-23 19:50:00,
2013-06-23 14:54:00,90.6,65.1,29.85,South,169,0.0,11.0,43,0.00,,,0.00,VWS V13.01,2013-06-23 19:54:00,
2013-06-23 14:59:00,90.8,65.9,29.85,SSW,202,7.0,11.0,44,0.00,,,0.00,VWS V13.01,2013-06-23 19:59:00,
2013-06-23 15:00:00,90.4,67.4,29.87,SW,216,5.0,10.0,47,0.00,,,0.00,VWS V15.00,2013-06-23 20:00:00,
2013-06-23 15:04:00,90.7,65.8,29.84,SSE,153,10.0,10.0,44,0.00,,,0.00,VWS V13.01,2013-06-23 20:04:00,
2013-06-23 15:09:00,90.5,66.9,29.84,SSE,159,0.0,10.0,46,0.00,,,0.00,VWS V13.01,2013-06-23 20:09:00,
2013-06-23 15:10:00,90.5,66.3,29.87,South,184,3.0,15.0,45,0.00,,,0.00,VWS V15.00,2013-06-23 20:10:00,
2013-06-23 15:14:00,90.4,66.2,29.84,SE,137,9.0,12.0,45,0.00,,,0.00,VWS V13.01,2013-06-23 20:14:00,
2013-06-23 15:19:00,90.2,66.0,29.83,SE,133,6.0,12.0,45,0.00,,,0.00,VWS V13.01,2013-06-23 20:19:00,
2013-06-23 15:20:00,90.7,65.8,29.86,SW,218,6.0,17.0,44,0.00,,,0.00,VWS V15.00,2013-06-23 20:20:00,
2013-06-23 15:24:00,90.1,65.9,29.83,SE,142,1.0,8.0,45,0.00,,,0.00,VWS V13.01,2013-06-23 20:24:00,
2013-06-23 15:29:00,89.9,65.7,29.83,SE,135,0.0,11.0,45,0.00,,,0.00,VWS V13.01,2013-06-23 20:29:00,
2013-06-23 15:30:00,91.6,66.6,29.86,SW,219,2.0,16.0,44,0.00,,,0.00,VWS V15.00,2013-06-23 20:30:00,
2013-06-23 15:34:00,90.1,65.9,29.83,SE,132,6.0,8.0,45,0.00,,,0.00,VWS V13.01,2013-06-23 20:34:00,
2013-06-23 15:39:00,90.6,66.4,29.83,SSW,202,5.0,10.0,45,0.00,,,0.00,VWS V13.01,2013-06-23 20:39:00,
2013-06-23 15:40:00,91.1,64.8,29.86,SSW,194,0.0,15.0,42,0.00,,,0.00,VWS V15.00,2013-06-23 20:40:00,
2013-06-23 15:44:00,91.6,66.0,29.83,SE,146,3.0,10.0,43,0.00,,,0.00,VWS V13.01,2013-06-23 20:44:00,
2013-06-23 15:49:00,92.0,65.6,29.82,SSE,163,0.0,11.0,42,0.00,,,0.00,VWS V13.01,2013-06-23 20:49:00,
2013-06-23 15:50:00,90.7,65.2,29.85,SSE,166,0.0,12.0,43,0.00,,,0.00,VWS V15.00,2013-06-23 20:50:00,
2013-06-23 15:54:00,92.1,65.7,29.82,SSE,165,0.0,14.0,42,0.00,,,0.00,VWS V13.01,2013-06-23 20:54:00,
2013-06-23 15:59:00,92.0,65.6,29.82,SE,132,0.0,14.0,42,0.00,,,0.00,VWS V13.01,2013-06-23 20:59:00,
2013-06-23 16:00:00,90.8,65.2,29.84,South,188,0.0,12.0,43,0.00,,,0.00,VWS V15.00,2013-06-23 21:00:00,
2013-06-23 16:04:00,92.2,65.1,29.81,SSE,167,0.0,9.0,41,0.00,,,0.00,VWS V13.01,2013-06-23 21:04:00,
2013-06-23 16:09:00,92.2,65.8,29.81,SSE,155,0.0,9.0,42,0.00,,,0.00,VWS V13.01,2013-06-23 21:09:00,
2013-06-23 16:10:00,90.4,66.8,29.84,SSE,164,0.0,10.0,46,0.00,,,0.00,VWS V15.00,2013-06-23 21:10:00,
2013-06-23 16:14:00,92.7,66.9,29.81,South,180,7.0,13.0,43,0.00,,,0.00,VWS V13.01,2013-06-23 21:14:00,
2013-06-23 16:19:00,93.1,65.2,29.81,SSW,209,0.0,13.0,40,0.00,,,0.00,VWS V13.01,2013-06-23 21:19:00,
2013-06-23 16:20:00,90.2,66.0,29.83,SE,142,0.0,12.0,45,0.00,,,0.00,VWS V15.00,2013-06-23 21:20:00,
2013-06-23 16:24:00,93.5,64.8,29.81,South,184,12.0,13.0,39,0.00,,,0.00,VWS V13.01,2013-06-23 21:24:00,
2013-06-23 16:29:00,94.0,63.0,29.81,SSE,148,0.0,16.0,36,0.00,,,0.00,VWS V13.01,2013-06-23 21:29:00,
2013-06-23 16:30:00,89.9,65.7,29.83,SE,136,0.0,11.0,45,0.00,,,0.00,VWS V15.00,2013-06-23 21:30:00,
2013-06-23 16:34:00,93.9,63.7,29.81,SSW,194,12.0,14.0,37,0.00,,,0.00,VWS V13.01,2013-06-23 21:34:00,
2013-06-23 16:39:00,93.7,62.7,29.81,SW,227,8.0,15.0,36,0.00,,,0.00,VWS V13.01,2013-06-23 21:39:00,
2013-06-23 16:40:00,91.1,66.2,29.83,South,183,5.0,10.0,44,0.00,,,0.00,VWS V15.00,2013-06-23 21:40:00,
2013-06-23 16:44:00,93.2,63.1,29.81,SSE,156,7.0,14.0,37,0.00,,,0.00,VWS V13.01,2013-06-23 21:44:00,
2013-06-23 16:49:00,92.7,63.4,29.80,SW,215,2.0,14.0,38,0.00,,,0.00,VWS V13.01,2013-06-23 21:49:00,
2013-06-23 16:50:00,92.1,65.7,29.82,ESE,105,5.0,11.0,42,0.00,,,0.00,VWS V15.00,2013-06-23 21:50:00,
2013-06-23 16:54:00,92.7,63.4,29.80,SSE,157,4.0,12.0,38,0.00,,,0.00,VWS V13.01,2013-06-23 21:54:00,
2013-06-23 16:59:00,92.5,62.5,29.80,SE,134,8.0,15.0,37,0.00,,,0.00,VWS V13.01,2013-06-23 21:59:00,
2013-06-23 17:00:00,92.1,65.7,29.81,South,182,0.0,14.0,42,0.00,,,0.00,VWS V15.00,2013-06-23 22:00:00,
2013-06-23 17:04:00,92.5,63.2,29.81,SSW,207,7.0,11.0,38,0.00,,,0.00,VWS V13.01,2013-06-23 22:04:00,
2013-06-23 17:10:00,92.6,63.3,29.81,South,180,0.0,15.0,38,0.00,,,0.00,VWS V13.01,2013-06-23 22:10:00,
2013-06-23 17:15:00,92.7,64.1,29.81,South,182,4.0,4.0,39,0.00,,,0.00,VWS V13.01,2013-06-23 22:15:00,
2013-06-23 17:20:00,92.6,64.1,29.80,SSE,152,0.0,13.0,39,0.00,,,0.00,VWS V13.01,2013-06-23 22:20:00,
2013-06-23 17:25:00,92.4,63.9,29.80,SSE,154,5.0,11.0,39,0.00,,,0.00,VWS V13.01,2013-06-23 22:25:00,
2013-06-23 17:30:00,92.2,64.4,29.80,SSE,155,12.0,12.0,40,0.00,,,0.00,VWS V13.01,2013-06-23 22:30:00,
2013-06-23 17:35:00,92.3,64.5,29.80,SSE,150,0.0,9.0,40,0.00,,,0.00,VWS V13.01,2013-06-23 22:35:00,
2013-06-23 17:40:00,92.2,65.1,29.80,SSE,156,5.0,14.0,41,0.00,,,0.00,VWS V13.01,2013-06-23 22:40:00,
2013-06-23 17:45:00,92.0,64.9,29.80,SSE,158,9.0,11.0,41,0.00,,,0.00,VWS V13.01,2013-06-23 22:45:00,
2013-06-23 17:50:00,92.0,65.6,29.80,SSE,159,8.0,11.0,42,0.00,,,0.00,VWS V13.01,2013-06-23 22:50:00,
2013-06-23 17:55:00,91.9,65.6,29.80,SSE,152,11.0,16.0,42,0.00,,,0.00,VWS V13.01,2013-06-23 22:55:00,
2013-06-23 18:00:00,91.8,64.8,29.80,SSE,151,9.0,16.0,41,0.00,,,0.00,VWS V13.01,2013-06-23 23:00:00,
2013-06-23 18:05:00,91.8,64.8,29.79,South,180,0.0,15.0,41,0.00,,,0.00,VWS V13.01,2013-06-23 23:05:00,
2013-06-23 18:10:00,91.8,64.8,29.79,SSE,167,8.0,15.0,41,0.00,,,0.00,VWS V13.01,2013-06-23 23:10:00,
2013-06-23 18:15:00,91.8,64.8,29.79,SSE,158,7.0,12.0,41,0.00,,,0.00,VWS V13.01,2013-06-23 23:15:00,
2013-06-23 18:20:00,91.7,64.0,29.79,SSE,153,12.0,14.0,40,0.00,,,0.00,VWS V13.01,2013-06-23 23:20:00,
2013-06-23 18:25:00,91.6,64.6,29.79,SSE,161,9.0,14.0,41,0.00,,,0.00,VWS V13.01,2013-06-23 23:25:00,
2013-06-23 18:30:00,91.5,63.8,29.79,SSE,149,5.0,15.0,40,0.00,,,0.00,VWS V13.01,2013-06-23 23:30:00,
2013-06-23 18:35:00,91.5,64.5,29.79,SSE,156,5.0,9.0,41,0.00,,,0.00,VWS V13.01,2013-06-23 23:35:00,
2013-06-23 18:40:00,91.4,63.7,29.79,SSE,155,15.0,16.0,40,0.00,,,0.00,VWS V13.01,2013-06-23 23:40:00,
2013-06-23 18:45:00,91.3,64.3,29.79,South,169,0.0,12.0,41,0.00,,,0.00,VWS V13.01,2013-06-23 23:45:00,
2013-06-23 18:50:00,91.2,64.2,29.79,SSE,167,4.0,14.0,41,0.00,,,0.00,VWS V13.01,2013-06-23 23:50:00,
2013-06-23 18:55:00,91.1,64.1,29.79,South,175,0.0,13.0,41,0.00,,,0.00,VWS V13.01,2013-06-23 23:55:00,
2013-06-23 19:00:00,91.1,64.1,29.80,SSE,148,5.0,13.0,41,0.00,,,0.00,VWS V13.01,2013-06-24 00:00:00,
2013-06-23 19:05:00,91.0,63.3,29.80,SSE,153,0.0,17.0,40,0.00,,,0.00,VWS V13.01,2013-06-24 00:05:00,
2013-06-23 19:10:00,91.0,62.6,29.80,SW,218,9.0,17.0,39,0.00,,,0.00,VWS V13.01,2013-06-24 00:10:00,
2013-06-23 19:15:00,91.0,61.9,29.79,SSW,193,5.0,14.0,38,0.00,,,0.00,VWS V13.01,2013-06-24 00:15:00,
2013-06-23 19:20:00,90.9,61.8,29.79,ESE,123,4.0,14.0,38,0.00,,,0.00,VWS V13.01,2013-06-24 00:20:00,
2013-06-23 19:21:00,90.9,61.8,29.79,South,172,5.0,14.0,38,0.00,,,0.00,VWS V13.01,2013-06-24 00:21:00,
2013-06-23 19:26:00,90.8,61.7,29.79,SSE,152,11.0,14.0,38,0.00,,,0.00,VWS V13.01,2013-06-24 00:26:00,
2013-06-23 19:30:00,91.5,64.5,29.79,SSW,192,5.0,15.0,41,0.00,,,0.00,VWS V15.00,2013-06-24 00:30:00,
2013-06-23 19:31:00,90.7,61.6,29.80,SSE,158,6.0,14.0,38,0.00,,,0.00,VWS V13.01,2013-06-24 00:31:00,
2013-06-23 19:36:00,90.5,61.5,29.80,South,189,10.0,17.0,38,0.00,,,0.00,VWS V13.01,2013-06-24 00:36:00,
2013-06-23 19:40:00,91.4,63.7,29.79,SSE,167,5.0,16.0,40,0.00,,,0.00,VWS V15.00,2013-06-24 00:40:00,
2013-06-23 19:41:00,90.2,61.2,29.80,SSW,202,7.0,17.0,38,0.00,,,0.00,VWS V13.01,2013-06-24 00:41:00,
2013-06-23 19:46:00,90.2,61.2,29.80,SSE,157,4.0,11.0,38,0.00,,,0.00,VWS V13.01,2013-06-24 00:46:00,
2013-06-23 19:50:00,91.2,64.2,29.79,SSE,149,5.0,14.0,41,0.00,,,0.00,VWS V15.00,2013-06-24 00:50:00,
2013-06-23 19:51:00,90.1,61.1,29.80,SSE,162,8.0,12.0,38,0.00,,,0.00,VWS V13.01,2013-06-24 00:51:00,
2013-06-23 19:56:00,90.0,60.3,29.80,SSE,155,3.0,11.0,37,0.00,,,0.00,VWS V13.01,2013-06-24 00:56:00,
2013-06-23 20:00:00,91.1,64.1,29.80,SSE,153,0.0,13.0,41,0.00,,,0.00,VWS V15.00,2013-06-24 01:00:00,
2013-06-23 20:01:00,89.9,60.2,29.80,SSE,165,0.0,12.0,37,0.00,,,0.00,VWS V13.01,2013-06-24 01:01:00,
2013-06-23 20:06:00,89.8,59.3,29.80,South,188,2.0,13.0,36,0.00,,,0.00,VWS V13.01,2013-06-24 01:06:00,
2013-06-23 20:10:00,91.0,62.6,29.80,SE,143,8.0,17.0,39,0.00,,,0.00,VWS V15.00,2013-06-24 01:10:00,
2013-06-23 20:11:00,89.7,60.0,29.80,South,188,0.0,13.0,37,0.00,,,0.00,VWS V13.01,2013-06-24 01:11:00,
2013-06-23 20:16:00,89.5,59.8,29.80,SE,141,3.0,12.0,37,0.00,,,0.00,VWS V13.01,2013-06-24 01:16:00,
2013-06-23 20:20:00,90.9,61.8,29.79,SSE,152,12.0,14.0,38,0.00,,,0.00,VWS V15.00,2013-06-24 01:20:00,
2013-06-23 20:21:00,89.4,59.7,29.80,SSE,149,3.0,14.0,37,0.00,,,0.00,VWS V13.01,2013-06-24 01:21:00,
2013-06-23 20:26:00,89.3,59.6,29.80,SE,139,9.0,12.0,37,0.00,,,0.00,VWS V13.01,2013-06-24 01:26:00,
2013-06-23 20:30:00,90.7,61.6,29.80,SSW,203,10.0,14.0,38,0.00,,,0.00,VWS V15.00,2013-06-24 01:30:00,
2013-06-23 20:31:00,89.1,60.2,29.80,SSE,160,0.0,12.0,38,0.00,,,0.00,VWS V13.01,2013-06-24 01:31:00,
2013-06-23 20:36:00,89.0,60.1,29.80,South,185,0.0,9.0,38,0.00,,,0.00,VWS V13.01,2013-06-24 01:36:00,
2013-06-23 20:40:00,90.2,61.2,29.80,South,179,0.0,17.0,38,0.00,,,0.00,VWS V15.00,2013-06-24 01:40:00,
2013-06-23 20:41:00,88.8,60.7,29.80,SE,142,3.0,12.0,39,0.00,,,0.00,VWS V13.01,2013-06-24 01:41:00,
2013-06-23 20:46:00,88.6,60.5,29.80,SSE,149,1.0,11.0,39,0.00,,,0.00,VWS V13.01,2013-06-24 01:46:00,
2013-06-23 20:50:00,90.1,61.1,29.80,SSE,161,0.0,12.0,38,0.00,,,0.00,VWS V15.00,2013-06-24 01:50:00,
2013-06-23 20:51:00,88.4,60.3,29.80,SSE,150,1.0,13.0,39,0.00,,,0.00,VWS V13.01,2013-06-24 01:51:00,
2013-06-23 20:56:00,88.2,60.8,29.80,SSE,159,7.0,10.0,40,0.00,,,0.00,VWS V13.01,2013-06-24 01:56:00,
2013-06-23 21:00:00,89.8,60.1,29.80,SSE,155,0.0,12.0,37,0.00,,,0.00,VWS V15.00,2013-06-24 02:00:00,
2013-06-23 21:01:00,88.1,60.8,29.81,SE,139,7.0,7.0,40,0.00,,,0.00,VWS V13.01,2013-06-24 02:01:00,
2013-06-23 21:06:00,88.0,60.7,29.81,South,171,3.0,11.0,40,0.00,,,0.00,VWS V13.01,2013-06-24 02:06:00,
2013-06-23 21:10:00,89.6,59.9,29.80,SSE,153,0.0,13.0,37,0.00,,,0.00,VWS V15.00,2013-06-24 02:10:00,
2013-06-23 21:11:00,87.8,61.2,29.81,SE,132,5.0,8.0,41,0.00,,,0.00,VWS V13.01,2013-06-24 02:11:00,
2013-06-23 21:16:00,87.7,61.1,29.81,SSE,161,2.0,13.0,41,0.00,,,0.00,VWS V13.01,2013-06-24 02:16:00,
2013-06-23 21:20:00,89.4,59.7,29.80,SSE,167,7.0,14.0,37,0.00,,,0.00,VWS V15.00,2013-06-24 02:20:00,
2013-06-23 21:21:00,87.5,61.6,29.81,SSE,153,4.0,4.0,42,0.00,,,0.00,VWS V13.01,2013-06-24 02:21:00,
2013-06-23 21:26:00,87.3,61.4,29.81,SE,138,5.0,11.0,42,0.00,,,0.00,VWS V13.01,2013-06-24 02:26:00,
2013-06-23 21:30:00,89.1,60.2,29.80,SSE,157,4.0,12.0,38,0.00,,,0.00,VWS V15.00,2013-06-24 02:30:00,
2013-06-23 21:31:00,87.1,61.2,29.82,SE,139,4.0,6.0,42,0.00,,,0.00,VWS V13.01,2013-06-24 02:31:00,
2013-06-23 21:36:00,86.9,61.7,29.82,SE,146,0.0,9.0,43,0.00,,,0.00,VWS V13.01,2013-06-24 02:36:00,
2013-06-23 21:40:00,88.8,60.7,29.80,SE,142,3.0,12.0,39,0.00,,,0.00,VWS V15.00,2013-06-24 02:40:00,
2013-06-23 21:41:00,86.6,61.5,29.82,SE,136,0.0,4.0,43,0.00,,,0.00,VWS V13.01,2013-06-24 02:41:00,
2013-06-23 21:46:00,86.4,61.9,29.83,SE,143,6.0,12.0,44,0.00,,,0.00,VWS V13.01,2013-06-24 02:46:00,
2013-06-23 21:50:00,88.4,60.3,29.80,SSE,150,1.0,13.0,39,0.00,,,0.00,VWS V15.00,2013-06-24 02:50:00,
2013-06-23 21:51:00,86.2,62.4,29.83,SSE,159,4.0,11.0,45,0.00,,,0.00,VWS V13.01,2013-06-24 02:51:00,
2013-06-23 21:56:00,86.0,62.2,29.83,SSE,165,0.0,11.0,45,0.00,,,0.00,VWS V13.01,2013-06-24 02:56:00,
2013-06-23 22:00:00,88.1,60.8,29.81,SE,142,5.0,10.0,40,0.00,,,0.00,VWS V15.00,2013-06-24 03:00:00,
2013-06-23 22:02:00,85.8,62.7,29.83,South,173,0.0,0.0,46,0.00,,,0.00,VWS V13.01,2013-06-24 03:02:00,
2013-06-23 22:07:00,85.6,62.5,29.83,SSE,149,7.0,11.0,46,0.00,,,0.00,VWS V13.01,2013-06-24 03:07:00,
2013-06-23 22:10:00,87.8,61.2,29.81,SE,140,8.0,11.0,41,0.00,,,0.00,VWS V15.00,2013-06-24 03:10:00,
2013-06-23 22:12:00,85.4,62.9,29.83,SE,142,6.0,9.0,47,0.00,,,0.00,VWS V13.01,2013-06-24 03:12:00,
2013-06-23 22:17:00,85.2,62.7,29.84,SE,136,0.0,12.0,47,0.00,,,0.00,VWS V13.01,2013-06-24 03:17:00,
2013-06-23 22:20:00,87.5,61.6,29.81,SSE,155,2.0,13.0,42,0.00,,,0.00,VWS V15.00,2013-06-24 03:20:00,
2013-06-23 22:22:00,85.1,63.2,29.84,SE,133,2.0,9.0,48,0.00,,,0.00,VWS V13.01,2013-06-24 03:22:00,
2013-06-23 22:27:00,84.9,63.6,29.84,SE,130,6.0,15.0,49,0.00,,,0.00,VWS V13.01,2013-06-24 03:27:00,
2013-06-23 22:30:00,87.1,61.2,29.82,SSE,167,5.0,11.0,42,0.00,,,0.00,VWS V15.00,2013-06-24 03:30:00,
2013-06-23 22:32:00,84.7,64.0,29.85,SSE,160,0.0,0.0,50,0.00,,,0.00,VWS V13.01,2013-06-24 03:32:00,
2013-06-23 22:37:00,84.5,64.4,29.85,SSE,149,1.0,11.0,51,0.00,,,0.00,VWS V13.01,2013-06-24 03:37:00,
2013-06-23 22:40:00,86.6,61.5,29.82,SE,136,4.0,10.0,43,0.00,,,0.00,VWS V15.00,2013-06-24 03:40:00,
2013-06-23 22:42:00,84.3,64.8,29.85,SSE,159,7.0,10.0,52,0.00,,,0.00,VWS V13.01,2013-06-24 03:42:00,
2013-06-23 22:47:00,84.1,65.1,29.85,SSE,165,0.0,12.0,53,0.00,,,0.00,VWS V13.01,2013-06-24 03:47:00,
2013-06-23 22:50:00,86.2,62.4,29.83,SSW,206,0.0,12.0,45,0.00,,,0.00,VWS V15.00,2013-06-24 03:50:00,
2013-06-23 22:52:00,83.9,65.5,29.85,SSE,163,9.0,11.0,54,0.00,,,0.00,VWS V13.01,2013-06-24 03:52:00,
2013-06-23 22:57:00,83.7,65.8,29.85,SE,142,0.0,11.0,55,0.00,,,0.00,VWS V13.01,2013-06-24 03:57:00,
2013-06-23 23:00:00,85.9,62.1,29.83,South,181,0.0,12.0,45,0.00,,,0.00,VWS V15.00,2013-06-24 04:00:00,
2013-06-23 23:01:00,83.6,65.7,29.86,SSW,198,8.0,17.0,55,0.00,,,0.00,VWS V13.01,2013-06-24 04:01:00,
2013-06-23 23:06:00,83.4,66.1,29.86,SSE,153,7.0,13.0,56,0.00,,,0.00,VWS V13.01,2013-06-24 04:06:00,
2013-06-23 23:10:00,85.5,63.0,29.83,SSE,155,6.0,12.0,47,0.00,,,0.00,VWS V15.00,2013-06-24 04:10:00,
2013-06-23 23:11:00,83.2,66.4,29.86,South,172,3.0,10.0,57,0.00,,,0.00,VWS V13.01,2013-06-24 04:11:00,
2013-06-23 23:16:00,83.0,66.2,29.86,South,171,0.0,14.0,57,0.00,,,0.00,VWS V13.01,2013-06-24 04:16:00,
2013-06-23 23:20:00,85.1,63.2,29.84,ESE,123,7.0,12.0,48,0.00,,,0.00,VWS V15.00,2013-06-24 04:20:00,
2013-06-23 23:21:00,82.8,66.5,29.86,SSW,208,8.0,14.0,58,0.00,,,0.00,VWS V13.01,2013-06-24 04:21:00,
2013-06-23 23:27:00,82.6,66.8,29.86,SE,130,6.0,15.0,59,0.00,,,0.00,VWS V13.01,2013-06-24 04:27:00,
2013-06-23 23:30:00,84.8,64.1,29.85,SSE,163,0.0,15.0,50,0.00,,,0.00,VWS V15.00,2013-06-24 04:30:00,
2013-06-23 23:32:00,82.4,67.1,29.86,WSW,238,6.0,6.0,60,0.00,,,0.00,VWS V13.01,2013-06-24 04:32:00,
2013-06-23 23:37:00,82.2,67.4,29.86,South,190,9.0,15.0,61,0.00,,,0.00,VWS V13.01,2013-06-24 04:37:00,
2013-06-23 23:40:00,84.4,64.9,29.85,South,181,10.0,11.0,52,0.00,,,0.00,VWS V15.00,2013-06-24 04:40:00,
2013-06-23 23:42:00,82.0,67.2,29.86,SSE,149,0.0,8.0,61,0.00,,,0.00,VWS V13.01,2013-06-24 04:42:00,
2013-06-23 23:47:00,81.8,67.5,29.87,SE,138,11.0,14.0,62,0.00,,,0.00,VWS V13.01,2013-06-24 04:47:00,
2013-06-23 23:50:00,83.9,65.5,29.85,SSE,156,6.0,12.0,54,0.00,,,0.00,VWS V15.00,2013-06-24 04:50:00,
2013-06-23 23:52:00,81.7,67.9,29.87,SSE,164,7.0,9.0,63,0.00,,,0.00,VWS V13.01,2013-06-24 04:52:00,
2013-06-23 23:57:00,81.5,67.7,29.87,SE,140,11.0,11.0,63,0.00,,,0.00,VWS V13.01,2013-06-24 04:57:00,